sensor_id;sensor_type;location;lat;lon;timestamp;P1;durP1;ratioP1;P2;durP2;ratioP2
40781;SDS011;26493;51.938;7.626;2022-09-09T00:04:28;19.55;;;13.60;;
40781;SDS011;26493;51.938;7.626;2022-09-09T00:12:13;17.77;;;14.20;;
40781;SDS011;26493;51.938;7.626;2022-09-09T00:17:12;20.50;;;14.20;;
40781;SDS011;26493;51.938;7.626;2022-09-09T00:20:01;17.55;;;13.80;;
40781;SDS011;26493;51.938;7.626;2022-09-09T00:22:27;18.83;;;14.05;;
40781;SDS011;26493;51.938;7.626;2022-09-09T00:24:57;16.23;;;14.15;;
40781;SDS011;26493;51.938;7.626;2022-09-09T00:27:38;17.23;;;13.60;;
40781;SDS011;26493;51.938;7.626;2022-09-09T00:32:38;16.45;;;14.00;;
40781;SDS011;26493;51.938;7.626;2022-09-09T00:37:36;17.38;;;15.48;;
40781;SDS011;26493;51.938;7.626;2022-09-09T00:40:06;18.45;;;16.10;;
40781;SDS011;26493;51.938;7.626;2022-09-09T00:42:41;17.70;;;15.80;;
40781;SDS011;26493;51.938;7.626;2022-09-09T00:57:53;18.95;;;15.15;;
40781;SDS011;26493;51.938;7.626;2022-09-09T01:00:23;21.20;;;15.15;;
40781;SDS011;26493;51.938;7.626;2022-09-09T01:05:27;18.75;;;14.60;;
40781;SDS011;26493;51.938;7.626;2022-09-09T01:07:56;18.35;;;14.18;;
40781;SDS011;26493;51.938;7.626;2022-09-09T01:10:39;16.27;;;13.05;;
40781;SDS011;26493;51.938;7.626;2022-09-09T01:13:09;18.00;;;13.70;;
40781;SDS011;26493;51.938;7.626;2022-09-09T01:15:38;16.73;;;13.50;;
40781;SDS011;26493;51.938;7.626;2022-09-09T01:18:09;18.92;;;13.57;;
40781;SDS011;26493;51.938;7.626;2022-09-09T01:20:44;18.63;;;13.43;;
40781;SDS011;26493;51.938;7.626;2022-09-09T01:28:28;16.77;;;14.05;;
40781;SDS011;26493;51.938;7.626;2022-09-09T01:30:55;16.80;;;13.65;;
40781;SDS011;26493;51.938;7.626;2022-09-09T01:33:22;17.85;;;13.43;;
40781;SDS011;26493;51.938;7.626;2022-09-09T01:35:49;16.88;;;13.25;;
40781;SDS011;26493;51.938;7.626;2022-09-09T01:38:16;16.50;;;13.32;;
40781;SDS011;26493;51.938;7.626;2022-09-09T01:40:43;16.60;;;13.15;;
40781;SDS011;26493;51.938;7.626;2022-09-09T01:43:09;15.43;;;12.98;;
40781;SDS011;26493;51.938;7.626;2022-09-09T01:45:36;16.10;;;12.82;;
40781;SDS011;26493;51.938;7.626;2022-09-09T01:48:02;18.17;;;13.30;;
40781;SDS011;26493;51.938;7.626;2022-09-09T01:50:28;16.70;;;13.23;;
40781;SDS011;26493;51.938;7.626;2022-09-09T01:52:56;17.45;;;13.77;;
40781;SDS011;26493;51.938;7.626;2022-09-09T01:55:42;16.85;;;13.88;;
40781;SDS011;26493;51.938;7.626;2022-09-09T02:00:56;18.23;;;13.98;;
40781;SDS011;26493;51.938;7.626;2022-09-09T02:03:25;19.38;;;13.88;;
40781;SDS011;26493;51.938;7.626;2022-09-09T02:08:20;16.67;;;13.68;;
40781;SDS011;26493;51.938;7.626;2022-09-09T02:10:53;17.73;;;13.55;;
40781;SDS011;26493;51.938;7.626;2022-09-09T02:13:21;16.60;;;13.43;;
40781;SDS011;26493;51.938;7.626;2022-09-09T02:15:58;17.35;;;14.00;;
40781;SDS011;26493;51.938;7.626;2022-09-09T02:18:27;16.60;;;14.40;;
40781;SDS011;26493;51.938;7.626;2022-09-09T02:20:54;16.20;;;13.75;;
40781;SDS011;26493;51.938;7.626;2022-09-09T02:23:22;17.98;;;13.75;;
40781;SDS011;26493;51.938;7.626;2022-09-09T02:25:48;17.80;;;14.90;;
40781;SDS011;26493;51.938;7.626;2022-09-09T02:28:16;17.45;;;14.70;;
40781;SDS011;26493;51.938;7.626;2022-09-09T02:30:44;18.38;;;15.20;;
40781;SDS011;26493;51.938;7.626;2022-09-09T02:33:12;18.00;;;15.05;;
40781;SDS011;26493;51.938;7.626;2022-09-09T02:35:38;18.65;;;15.57;;
40781;SDS011;26493;51.938;7.626;2022-09-09T02:38:06;17.52;;;15.05;;
40781;SDS011;26493;51.938;7.626;2022-09-09T02:40:33;20.10;;;15.45;;
40781;SDS011;26493;51.938;7.626;2022-09-09T02:42:59;17.70;;;15.63;;
40781;SDS011;26493;51.938;7.626;2022-09-09T02:45:27;19.02;;;15.23;;
40781;SDS011;26493;51.938;7.626;2022-09-09T02:50:29;17.70;;;14.32;;
40781;SDS011;26493;51.938;7.626;2022-09-09T02:57:59;17.58;;;14.07;;
40781;SDS011;26493;51.938;7.626;2022-09-09T03:00:26;19.33;;;14.82;;
40781;SDS011;26493;51.938;7.626;2022-09-09T03:02:53;17.60;;;14.20;;
40781;SDS011;26493;51.938;7.626;2022-09-09T03:05:22;19.00;;;14.95;;
40781;SDS011;26493;51.938;7.626;2022-09-09T03:07:48;17.58;;;14.45;;
40781;SDS011;26493;51.938;7.626;2022-09-09T03:10:15;19.20;;;14.32;;
40781;SDS011;26493;51.938;7.626;2022-09-09T03:12:42;18.55;;;14.40;;
40781;SDS011;26493;51.938;7.626;2022-09-09T03:15:08;18.38;;;14.73;;
40781;SDS011;26493;51.938;7.626;2022-09-09T03:17:34;18.83;;;15.55;;
40781;SDS011;26493;51.938;7.626;2022-09-09T03:20:02;18.60;;;15.18;;
40781;SDS011;26493;51.938;7.626;2022-09-09T03:22:28;16.92;;;14.90;;
40781;SDS011;26493;51.938;7.626;2022-09-09T03:24:54;17.63;;;14.88;;
40781;SDS011;26493;51.938;7.626;2022-09-09T03:27:20;20.58;;;15.90;;
40781;SDS011;26493;51.938;7.626;2022-09-09T03:29:46;19.85;;;16.73;;
40781;SDS011;26493;51.938;7.626;2022-09-09T03:32:14;22.02;;;16.92;;
40781;SDS011;26493;51.938;7.626;2022-09-09T03:34:42;19.27;;;17.17;;
40781;SDS011;26493;51.938;7.626;2022-09-09T03:37:08;18.63;;;16.38;;
40781;SDS011;26493;51.938;7.626;2022-09-09T03:39:34;19.17;;;16.52;;
40781;SDS011;26493;51.938;7.626;2022-09-09T03:42:00;20.77;;;16.25;;
40781;SDS011;26493;51.938;7.626;2022-09-09T03:44:30;22.17;;;16.75;;
40781;SDS011;26493;51.938;7.626;2022-09-09T03:46:56;21.13;;;16.98;;
40781;SDS011;26493;51.938;7.626;2022-09-09T03:49:25;18.88;;;16.60;;
40781;SDS011;26493;51.938;7.626;2022-09-09T03:51:53;19.40;;;16.92;;
40781;SDS011;26493;51.938;7.626;2022-09-09T03:54:19;22.30;;;18.33;;
40781;SDS011;26493;51.938;7.626;2022-09-09T03:56:45;22.95;;;18.15;;
40781;SDS011;26493;51.938;7.626;2022-09-09T03:59:11;20.77;;;17.90;;
40781;SDS011;26493;51.938;7.626;2022-09-09T04:01:39;21.88;;;17.88;;
40781;SDS011;26493;51.938;7.626;2022-09-09T04:04:05;21.33;;;18.05;;
40781;SDS011;26493;51.938;7.626;2022-09-09T04:06:31;19.67;;;17.30;;
40781;SDS011;26493;51.938;7.626;2022-09-09T04:08:57;19.88;;;17.23;;
40781;SDS011;26493;51.938;7.626;2022-09-09T04:11:23;21.45;;;17.30;;
40781;SDS011;26493;51.938;7.626;2022-09-09T04:13:49;21.02;;;16.42;;
40781;SDS011;26493;51.938;7.626;2022-09-09T04:16:15;19.83;;;16.45;;
40781;SDS011;26493;51.938;7.626;2022-09-09T04:18:41;21.63;;;16.08;;
40781;SDS011;26493;51.938;7.626;2022-09-09T04:21:08;19.83;;;15.85;;
40781;SDS011;26493;51.938;7.626;2022-09-09T04:23:35;22.23;;;15.65;;
40781;SDS011;26493;51.938;7.626;2022-09-09T04:26:01;20.25;;;15.20;;
40781;SDS011;26493;51.938;7.626;2022-09-09T04:28:29;21.35;;;15.35;;
40781;SDS011;26493;51.938;7.626;2022-09-09T04:30:55;22.30;;;15.13;;
40781;SDS011;26493;51.938;7.626;2022-09-09T04:33:24;18.38;;;14.85;;
40781;SDS011;26493;51.938;7.626;2022-09-09T04:35:51;17.77;;;14.68;;
40781;SDS011;26493;51.938;7.626;2022-09-09T04:38:19;19.70;;;14.25;;
40781;SDS011;26493;51.938;7.626;2022-09-09T04:40:47;18.17;;;13.85;;
40781;SDS011;26493;51.938;7.626;2022-09-09T04:43:14;20.98;;;14.50;;
40781;SDS011;26493;51.938;7.626;2022-09-09T04:45:40;25.52;;;16.38;;
40781;SDS011;26493;51.938;7.626;2022-09-09T04:48:06;18.05;;;13.45;;
40781;SDS011;26493;51.938;7.626;2022-09-09T04:50:32;22.42;;;15.05;;
40781;SDS011;26493;51.938;7.626;2022-09-09T04:53:02;19.73;;;14.02;;
40781;SDS011;26493;51.938;7.626;2022-09-09T04:55:29;21.52;;;13.60;;
40781;SDS011;26493;51.938;7.626;2022-09-09T04:57:56;19.17;;;13.85;;
40781;SDS011;26493;51.938;7.626;2022-09-09T05:00:22;19.20;;;13.02;;
40781;SDS011;26493;51.938;7.626;2022-09-09T05:02:48;19.17;;;13.73;;
40781;SDS011;26493;51.938;7.626;2022-09-09T05:05:14;19.75;;;14.20;;
40781;SDS011;26493;51.938;7.626;2022-09-09T05:07:41;18.70;;;12.45;;
40781;SDS011;26493;51.938;7.626;2022-09-09T05:10:08;18.00;;;12.45;;
40781;SDS011;26493;51.938;7.626;2022-09-09T05:12:34;18.63;;;12.25;;
40781;SDS011;26493;51.938;7.626;2022-09-09T05:15:01;18.98;;;11.95;;
40781;SDS011;26493;51.938;7.626;2022-09-09T05:17:27;18.00;;;12.50;;
40781;SDS011;26493;51.938;7.626;2022-09-09T05:19:53;16.80;;;11.77;;
40781;SDS011;26493;51.938;7.626;2022-09-09T05:22:20;17.98;;;11.68;;
40781;SDS011;26493;51.938;7.626;2022-09-09T05:24:49;17.97;;;12.10;;
40781;SDS011;26493;51.938;7.626;2022-09-09T05:27:18;17.85;;;12.13;;
40781;SDS011;26493;51.938;7.626;2022-09-09T05:29:47;19.38;;;12.18;;
40781;SDS011;26493;51.938;7.626;2022-09-09T05:32:13;19.13;;;11.50;;
40781;SDS011;26493;51.938;7.626;2022-09-09T05:34:41;17.38;;;12.02;;
40781;SDS011;26493;51.938;7.626;2022-09-09T05:37:07;18.70;;;11.88;;
40781;SDS011;26493;51.938;7.626;2022-09-09T05:39:33;21.15;;;12.95;;
40781;SDS011;26493;51.938;7.626;2022-09-09T05:42:01;17.40;;;12.20;;
40781;SDS011;26493;51.938;7.626;2022-09-09T05:44:29;17.77;;;11.73;;
40781;SDS011;26493;51.938;7.626;2022-09-09T05:46:55;20.65;;;12.20;;
40781;SDS011;26493;51.938;7.626;2022-09-09T05:49:22;19.00;;;11.77;;
40781;SDS011;26493;51.938;7.626;2022-09-09T05:51:48;19.38;;;11.75;;
40781;SDS011;26493;51.938;7.626;2022-09-09T05:54:15;18.05;;;11.95;;
40781;SDS011;26493;51.938;7.626;2022-09-09T05:56:41;18.48;;;11.65;;
40781;SDS011;26493;51.938;7.626;2022-09-09T05:59:07;18.00;;;11.57;;
40781;SDS011;26493;51.938;7.626;2022-09-09T06:01:35;19.73;;;11.30;;
40781;SDS011;26493;51.938;7.626;2022-09-09T06:04:02;18.30;;;11.23;;
40781;SDS011;26493;51.938;7.626;2022-09-09T06:06:35;17.73;;;11.93;;
40781;SDS011;26493;51.938;7.626;2022-09-09T06:09:02;17.98;;;11.02;;
40781;SDS011;26493;51.938;7.626;2022-09-09T06:11:31;19.60;;;11.52;;
40781;SDS011;26493;51.938;7.626;2022-09-09T06:13:58;21.27;;;11.52;;
40781;SDS011;26493;51.938;7.626;2022-09-09T06:16:25;16.33;;;10.38;;
40781;SDS011;26493;51.938;7.626;2022-09-09T06:18:52;22.07;;;11.37;;
40781;SDS011;26493;51.938;7.626;2022-09-09T06:21:29;19.05;;;10.52;;
40781;SDS011;26493;51.938;7.626;2022-09-09T06:23:56;18.70;;;11.10;;
40781;SDS011;26493;51.938;7.626;2022-09-09T06:26:23;18.52;;;10.40;;
40781;SDS011;26493;51.938;7.626;2022-09-09T06:28:50;21.58;;;10.55;;
40781;SDS011;26493;51.938;7.626;2022-09-09T06:31:18;18.23;;;10.32;;
40781;SDS011;26493;51.938;7.626;2022-09-09T06:33:47;18.35;;;10.35;;
40781;SDS011;26493;51.938;7.626;2022-09-09T06:36:15;17.45;;;10.40;;
40781;SDS011;26493;51.938;7.626;2022-09-09T06:38:42;17.42;;;10.32;;
40781;SDS011;26493;51.938;7.626;2022-09-09T06:41:08;16.88;;;9.95;;
40781;SDS011;26493;51.938;7.626;2022-09-09T06:43:34;19.05;;;10.55;;
40781;SDS011;26493;51.938;7.626;2022-09-09T06:48:27;17.65;;;11.00;;
40781;SDS011;26493;51.938;7.626;2022-09-09T06:51:27;17.77;;;10.45;;
40781;SDS011;26493;51.938;7.626;2022-09-09T06:53:52;17.73;;;10.18;;
40781;SDS011;26493;51.938;7.626;2022-09-09T06:58:48;16.90;;;9.50;;
40781;SDS011;26493;51.938;7.626;2022-09-09T07:01:15;16.45;;;9.60;;
40781;SDS011;26493;51.938;7.626;2022-09-09T07:03:44;18.25;;;10.43;;
40781;SDS011;26493;51.938;7.626;2022-09-09T07:06:14;17.80;;;10.20;;
40781;SDS011;26493;51.938;7.626;2022-09-09T07:08:42;15.82;;;9.80;;
40781;SDS011;26493;51.938;7.626;2022-09-09T07:11:08;18.13;;;10.00;;
40781;SDS011;26493;51.938;7.626;2022-09-09T07:13:34;18.02;;;10.68;;
40781;SDS011;26493;51.938;7.626;2022-09-09T07:16:07;18.48;;;9.90;;
40781;SDS011;26493;51.938;7.626;2022-09-09T07:18:34;18.17;;;10.27;;
40781;SDS011;26493;51.938;7.626;2022-09-09T07:21:00;17.48;;;10.48;;
40781;SDS011;26493;51.938;7.626;2022-09-09T07:23:27;18.33;;;10.23;;
40781;SDS011;26493;51.938;7.626;2022-09-09T07:25:53;18.33;;;10.27;;
40781;SDS011;26493;51.938;7.626;2022-09-09T07:28:20;17.80;;;10.43;;
40781;SDS011;26493;51.938;7.626;2022-09-09T07:30:56;20.10;;;10.40;;
40781;SDS011;26493;51.938;7.626;2022-09-09T07:33:23;19.95;;;10.38;;
40781;SDS011;26493;51.938;7.626;2022-09-09T07:35:49;19.90;;;10.10;;
40781;SDS011;26493;51.938;7.626;2022-09-09T07:38:15;17.80;;;9.48;;
40781;SDS011;26493;51.938;7.626;2022-09-09T07:40:42;18.25;;;10.48;;
40781;SDS011;26493;51.938;7.626;2022-09-09T07:43:08;17.83;;;10.00;;
40781;SDS011;26493;51.938;7.626;2022-09-09T07:45:35;21.00;;;10.20;;
40781;SDS011;26493;51.938;7.626;2022-09-09T07:48:01;17.25;;;9.55;;
40781;SDS011;26493;51.938;7.626;2022-09-09T07:50:27;18.30;;;10.10;;
40781;SDS011;26493;51.938;7.626;2022-09-09T07:52:53;18.05;;;10.32;;
40781;SDS011;26493;51.938;7.626;2022-09-09T07:55:20;16.30;;;9.40;;
40781;SDS011;26493;51.938;7.626;2022-09-09T07:57:46;19.42;;;9.13;;
40781;SDS011;26493;51.938;7.626;2022-09-09T08:00:13;17.88;;;9.20;;
40781;SDS011;26493;51.938;7.626;2022-09-09T08:02:40;17.52;;;9.18;;
40781;SDS011;26493;51.938;7.626;2022-09-09T08:05:06;17.30;;;9.77;;
40781;SDS011;26493;51.938;7.626;2022-09-09T08:07:32;17.00;;;9.07;;
40781;SDS011;26493;51.938;7.626;2022-09-09T08:09:58;17.10;;;9.50;;
40781;SDS011;26493;51.938;7.626;2022-09-09T08:12:24;19.88;;;9.35;;
40781;SDS011;26493;51.938;7.626;2022-09-09T08:14:50;16.55;;;9.32;;
40781;SDS011;26493;51.938;7.626;2022-09-09T08:17:17;17.58;;;8.70;;
40781;SDS011;26493;51.938;7.626;2022-09-09T08:19:43;16.50;;;8.65;;
40781;SDS011;26493;51.938;7.626;2022-09-09T08:22:09;17.70;;;8.70;;
40781;SDS011;26493;51.938;7.626;2022-09-09T08:24:35;19.83;;;9.00;;
40781;SDS011;26493;51.938;7.626;2022-09-09T08:27:01;18.15;;;8.70;;
40781;SDS011;26493;51.938;7.626;2022-09-09T08:29:27;20.30;;;8.93;;
40781;SDS011;26493;51.938;7.626;2022-09-09T08:31:54;18.23;;;8.77;;
40781;SDS011;26493;51.938;7.626;2022-09-09T08:34:22;16.63;;;8.57;;
40781;SDS011;26493;51.938;7.626;2022-09-09T08:36:49;17.45;;;8.32;;
40781;SDS011;26493;51.938;7.626;2022-09-09T08:39:16;16.98;;;8.77;;
40781;SDS011;26493;51.938;7.626;2022-09-09T08:41:46;17.20;;;8.35;;
40781;SDS011;26493;51.938;7.626;2022-09-09T08:52:16;20.30;;;9.15;;
40781;SDS011;26493;51.938;7.626;2022-09-09T08:54:44;17.33;;;9.13;;
40781;SDS011;26493;51.938;7.626;2022-09-09T08:57:11;18.33;;;9.60;;
40781;SDS011;26493;51.938;7.626;2022-09-09T08:59:40;18.10;;;9.35;;
40781;SDS011;26493;51.938;7.626;2022-09-09T09:02:16;17.83;;;10.07;;
40781;SDS011;26493;51.938;7.626;2022-09-09T09:12:18;18.48;;;10.15;;
40781;SDS011;26493;51.938;7.626;2022-09-09T09:14:45;18.65;;;10.00;;
40781;SDS011;26493;51.938;7.626;2022-09-09T09:17:13;17.48;;;9.27;;
40781;SDS011;26493;51.938;7.626;2022-09-09T09:19:40;16.07;;;8.63;;
40781;SDS011;26493;51.938;7.626;2022-09-09T09:24:45;18.52;;;9.55;;
40781;SDS011;26493;51.938;7.626;2022-09-09T09:27:14;15.55;;;8.00;;
40781;SDS011;26493;51.938;7.626;2022-09-09T09:29:41;16.83;;;9.18;;
40781;SDS011;26493;51.938;7.626;2022-09-09T09:32:13;19.52;;;9.32;;
40781;SDS011;26493;51.938;7.626;2022-09-09T09:34:40;16.42;;;9.25;;
40781;SDS011;26493;51.938;7.626;2022-09-09T09:37:12;19.88;;;9.35;;
40781;SDS011;26493;51.938;7.626;2022-09-09T09:39:40;17.38;;;9.23;;
40781;SDS011;26493;51.938;7.626;2022-09-09T09:42:12;18.33;;;9.30;;
40781;SDS011;26493;51.938;7.626;2022-09-09T09:44:39;15.88;;;9.35;;
40781;SDS011;26493;51.938;7.626;2022-09-09T09:49:55;16.90;;;9.50;;
40781;SDS011;26493;51.938;7.626;2022-09-09T09:52:24;19.92;;;9.63;;
40781;SDS011;26493;51.938;7.626;2022-09-09T09:54:50;17.27;;;9.90;;
40781;SDS011;26493;51.938;7.626;2022-09-09T09:57:17;17.08;;;10.00;;
40781;SDS011;26493;51.938;7.626;2022-09-09T09:59:44;18.10;;;9.57;;
40781;SDS011;26493;51.938;7.626;2022-09-09T10:02:23;17.98;;;9.70;;
40781;SDS011;26493;51.938;7.626;2022-09-09T10:05:08;19.50;;;9.75;;
40781;SDS011;26493;51.938;7.626;2022-09-09T10:07:38;17.23;;;9.53;;
40781;SDS011;26493;51.938;7.626;2022-09-09T10:10:04;16.00;;;9.32;;
40781;SDS011;26493;51.938;7.626;2022-09-09T10:13:14;18.40;;;10.30;;
40781;SDS011;26493;51.938;7.626;2022-09-09T10:21:11;17.90;;;9.48;;
40781;SDS011;26493;51.938;7.626;2022-09-09T10:29:22;16.13;;;9.70;;
40781;SDS011;26493;51.938;7.626;2022-09-09T10:33:50;17.42;;;10.68;;
40781;SDS011;26493;51.938;7.626;2022-09-09T10:36:19;17.17;;;10.27;;
40781;SDS011;26493;51.938;7.626;2022-09-09T10:38:46;18.70;;;10.15;;
40781;SDS011;26493;51.938;7.626;2022-09-09T10:51:21;16.88;;;11.18;;
40781;SDS011;26493;51.938;7.626;2022-09-09T10:56:24;17.23;;;10.52;;
40781;SDS011;26493;51.938;7.626;2022-09-09T10:58:52;17.33;;;10.80;;
40781;SDS011;26493;51.938;7.626;2022-09-09T11:01:23;21.55;;;11.27;;
40781;SDS011;26493;51.938;7.626;2022-09-09T11:03:58;18.65;;;11.02;;
40781;SDS011;26493;51.938;7.626;2022-09-09T11:06:28;17.85;;;10.88;;
40781;SDS011;26493;51.938;7.626;2022-09-09T11:08:55;18.30;;;10.77;;
40781;SDS011;26493;51.938;7.626;2022-09-09T11:18:48;17.13;;;10.95;;
40781;SDS011;26493;51.938;7.626;2022-09-09T11:21:24;17.20;;;11.30;;
40781;SDS011;26493;51.938;7.626;2022-09-09T11:23:53;16.88;;;11.18;;
40781;SDS011;26493;51.938;7.626;2022-09-09T11:26:27;17.55;;;11.27;;
40781;SDS011;26493;51.938;7.626;2022-09-09T11:34:16;18.98;;;10.32;;
40781;SDS011;26493;51.938;7.626;2022-09-09T11:41:43;17.80;;;10.23;;
40781;SDS011;26493;51.938;7.626;2022-09-09T11:44:12;19.10;;;10.68;;
40781;SDS011;26493;51.938;7.626;2022-09-09T11:46:42;18.10;;;10.38;;
40781;SDS011;26493;51.938;7.626;2022-09-09T11:49:25;16.67;;;9.98;;
40781;SDS011;26493;51.938;7.626;2022-09-09T11:51:52;19.90;;;10.50;;
40781;SDS011;26493;51.938;7.626;2022-09-09T11:56:54;17.15;;;9.93;;
40781;SDS011;26493;51.938;7.626;2022-09-09T11:59:25;17.13;;;9.50;;
40781;SDS011;26493;51.938;7.626;2022-09-09T12:09:55;16.90;;;10.32;;
40781;SDS011;26493;51.938;7.626;2022-09-09T12:12:22;16.63;;;10.15;;
40781;SDS011;26493;51.938;7.626;2022-09-09T12:14:55;19.17;;;10.27;;
40781;SDS011;26493;51.938;7.626;2022-09-09T12:17:22;18.05;;;10.25;;
40781;SDS011;26493;51.938;7.626;2022-09-09T12:20:35;18.17;;;10.47;;
40781;SDS011;26493;51.938;7.626;2022-09-09T12:22:54;17.63;;;10.68;;
40781;SDS011;26493;51.938;7.626;2022-09-09T12:28:05;15.48;;;9.48;;
40781;SDS011;26493;51.938;7.626;2022-09-09T12:30:37;14.80;;;9.35;;
40781;SDS011;26493;51.938;7.626;2022-09-09T12:33:08;15.20;;;9.50;;
40781;SDS011;26493;51.938;7.626;2022-09-09T12:35:36;15.48;;;9.73;;
40781;SDS011;26493;51.938;7.626;2022-09-09T12:38:03;17.17;;;9.80;;
40781;SDS011;26493;51.938;7.626;2022-09-09T12:40:35;15.95;;;9.57;;
40781;SDS011;26493;51.938;7.626;2022-09-09T12:43:02;15.23;;;9.80;;
40781;SDS011;26493;51.938;7.626;2022-09-09T12:45:29;16.83;;;10.30;;
40781;SDS011;26493;51.938;7.626;2022-09-09T12:48:00;15.73;;;9.98;;
40781;SDS011;26493;51.938;7.626;2022-09-09T12:50:29;17.42;;;10.80;;
40781;SDS011;26493;51.938;7.626;2022-09-09T12:52:57;16.35;;;10.70;;
40781;SDS011;26493;51.938;7.626;2022-09-09T12:55:28;17.52;;;11.10;;
40781;SDS011;26493;51.938;7.626;2022-09-09T12:57:55;15.95;;;10.73;;
40781;SDS011;26493;51.938;7.626;2022-09-09T13:00:22;16.30;;;10.10;;
40781;SDS011;26493;51.938;7.626;2022-09-09T13:02:56;16.00;;;10.50;;
40781;SDS011;26493;51.938;7.626;2022-09-09T13:05:27;16.30;;;10.80;;
40781;SDS011;26493;51.938;7.626;2022-09-09T13:08:04;15.63;;;10.43;;
40781;SDS011;26493;51.938;7.626;2022-09-09T13:10:33;17.23;;;10.70;;
40781;SDS011;26493;51.938;7.626;2022-09-09T13:13:00;15.10;;;10.15;;
40781;SDS011;26493;51.938;7.626;2022-09-09T13:15:27;16.40;;;10.25;;
40781;SDS011;26493;51.938;7.626;2022-09-09T13:17:54;15.27;;;9.77;;
40781;SDS011;26493;51.938;7.626;2022-09-09T13:20:21;16.17;;;10.07;;
40781;SDS011;26493;51.938;7.626;2022-09-09T13:22:48;15.60;;;10.45;;
40781;SDS011;26493;51.938;7.626;2022-09-09T13:25:22;17.00;;;9.88;;
40781;SDS011;26493;51.938;7.626;2022-09-09T13:30:23;30.25;;;25.73;;
40781;SDS011;26493;51.938;7.626;2022-09-09T13:33:06;33.38;;;30.27;;
40781;SDS011;26493;51.938;7.626;2022-09-09T13:35:32;35.08;;;32.28;;
40781;SDS011;26493;51.938;7.626;2022-09-09T13:37:59;31.52;;;28.90;;
40781;SDS011;26493;51.938;7.626;2022-09-09T13:40:33;28.83;;;26.17;;
40781;SDS011;26493;51.938;7.626;2022-09-09T13:42:59;27.38;;;24.83;;
40781;SDS011;26493;51.938;7.626;2022-09-09T13:45:27;27.25;;;24.80;;
40781;SDS011;26493;51.938;7.626;2022-09-09T13:47:53;22.55;;;20.27;;
40781;SDS011;26493;51.938;7.626;2022-09-09T13:52:49;22.67;;;20.13;;
40781;SDS011;26493;51.938;7.626;2022-09-09T13:55:16;21.77;;;19.58;;
40781;SDS011;26493;51.938;7.626;2022-09-09T13:57:55;19.92;;;17.83;;
40781;SDS011;26493;51.938;7.626;2022-09-09T14:00:22;19.85;;;17.75;;
40781;SDS011;26493;51.938;7.626;2022-09-09T14:02:49;20.67;;;18.52;;
40781;SDS011;26493;51.938;7.626;2022-09-09T14:05:15;20.42;;;18.33;;
40781;SDS011;26493;51.938;7.626;2022-09-09T14:07:41;20.17;;;16.13;;
40781;SDS011;26493;51.938;7.626;2022-09-09T14:10:08;16.38;;;14.15;;
40781;SDS011;26493;51.938;7.626;2022-09-09T14:12:34;17.88;;;14.00;;
40781;SDS011;26493;51.938;7.626;2022-09-09T14:15:01;17.23;;;13.73;;
40781;SDS011;26493;51.938;7.626;2022-09-09T14:17:27;16.48;;;11.60;;
40781;SDS011;26493;51.938;7.626;2022-09-09T14:19:55;16.80;;;11.18;;
40781;SDS011;26493;51.938;7.626;2022-09-09T14:22:21;15.18;;;8.70;;
40781;SDS011;26493;51.938;7.626;2022-09-09T14:24:48;19.10;;;13.80;;
40781;SDS011;26493;51.938;7.626;2022-09-09T14:27:14;42.78;;;39.28;;
40781;SDS011;26493;51.938;7.626;2022-09-09T14:29:40;50.42;;;46.88;;
40781;SDS011;26493;51.938;7.626;2022-09-09T14:32:08;49.43;;;45.90;;
40781;SDS011;26493;51.938;7.626;2022-09-09T14:34:34;44.80;;;41.70;;
40781;SDS011;26493;51.938;7.626;2022-09-09T14:37:00;44.45;;;41.33;;
40781;SDS011;26493;51.938;7.626;2022-09-09T14:39:26;40.58;;;37.83;;
40781;SDS011;26493;51.938;7.626;2022-09-09T14:41:53;38.63;;;35.63;;
40781;SDS011;26493;51.938;7.626;2022-09-09T14:44:19;37.67;;;34.75;;
40781;SDS011;26493;51.938;7.626;2022-09-09T14:46:45;37.42;;;34.35;;
40781;SDS011;26493;51.938;7.626;2022-09-09T14:49:11;36.30;;;33.35;;
40781;SDS011;26493;51.938;7.626;2022-09-09T14:51:37;33.03;;;30.25;;
40781;SDS011;26493;51.938;7.626;2022-09-09T14:54:04;32.65;;;29.63;;
40781;SDS011;26493;51.938;7.626;2022-09-09T14:56:31;31.48;;;28.77;;
40781;SDS011;26493;51.938;7.626;2022-09-09T14:58:59;29.13;;;26.70;;
40781;SDS011;26493;51.938;7.626;2022-09-09T15:01:28;28.98;;;26.58;;
40781;SDS011;26493;51.938;7.626;2022-09-09T15:04:02;28.83;;;26.13;;
40781;SDS011;26493;51.938;7.626;2022-09-09T15:06:30;28.35;;;25.75;;
40781;SDS011;26493;51.938;7.626;2022-09-09T15:08:58;28.40;;;25.77;;
40781;SDS011;26493;51.938;7.626;2022-09-09T15:11:26;26.42;;;24.13;;
40781;SDS011;26493;51.938;7.626;2022-09-09T15:13:53;27.80;;;25.58;;
40781;SDS011;26493;51.938;7.626;2022-09-09T15:16:20;24.90;;;22.80;;
40781;SDS011;26493;51.938;7.626;2022-09-09T15:18:50;25.05;;;22.67;;
40781;SDS011;26493;51.938;7.626;2022-09-09T15:21:19;22.80;;;20.65;;
40781;SDS011;26493;51.938;7.626;2022-09-09T15:23:46;20.73;;;18.70;;
40781;SDS011;26493;51.938;7.626;2022-09-09T15:26:13;20.77;;;18.77;;
40781;SDS011;26493;51.938;7.626;2022-09-09T15:28:40;20.30;;;18.23;;
40781;SDS011;26493;51.938;7.626;2022-09-09T15:31:11;20.00;;;17.88;;
40781;SDS011;26493;51.938;7.626;2022-09-09T15:33:39;19.80;;;17.80;;
40781;SDS011;26493;51.938;7.626;2022-09-09T15:36:20;20.67;;;18.67;;
40781;SDS011;26493;51.938;7.626;2022-09-09T15:38:47;19.90;;;17.85;;
40781;SDS011;26493;51.938;7.626;2022-09-09T15:41:13;19.73;;;17.73;;
40781;SDS011;26493;51.938;7.626;2022-09-09T15:43:42;20.58;;;18.23;;
40781;SDS011;26493;51.938;7.626;2022-09-09T15:46:31;18.88;;;16.98;;
40781;SDS011;26493;51.938;7.626;2022-09-09T15:48:57;19.40;;;17.40;;
40781;SDS011;26493;51.938;7.626;2022-09-09T15:51:24;19.38;;;17.42;;
40781;SDS011;26493;51.938;7.626;2022-09-09T15:53:54;20.23;;;18.02;;
40781;SDS011;26493;51.938;7.626;2022-09-09T15:56:21;19.58;;;16.73;;
40781;SDS011;26493;51.938;7.626;2022-09-09T15:58:47;20.92;;;17.35;;
40781;SDS011;26493;51.938;7.626;2022-09-09T16:01:13;19.52;;;17.42;;
40781;SDS011;26493;51.938;7.626;2022-09-09T16:03:40;20.98;;;17.35;;
40781;SDS011;26493;51.938;7.626;2022-09-09T16:06:15;18.45;;;16.55;;
40781;SDS011;26493;51.938;7.626;2022-09-09T16:08:43;20.15;;;17.70;;
40781;SDS011;26493;51.938;7.626;2022-09-09T16:13:36;20.15;;;17.00;;
40781;SDS011;26493;51.938;7.626;2022-09-09T16:16:03;19.52;;;16.33;;
40781;SDS011;26493;51.938;7.626;2022-09-09T16:18:45;17.80;;;15.75;;
40781;SDS011;26493;51.938;7.626;2022-09-09T16:21:16;18.05;;;16.15;;
40781;SDS011;26493;51.938;7.626;2022-09-09T16:23:43;18.45;;;15.82;;
40781;SDS011;26493;51.938;7.626;2022-09-09T16:26:10;17.70;;;15.70;;
40781;SDS011;26493;51.938;7.626;2022-09-09T16:28:36;22.13;;;20.02;;
40781;SDS011;26493;51.938;7.626;2022-09-09T16:31:04;39.47;;;36.33;;
40781;SDS011;26493;51.938;7.626;2022-09-09T16:33:31;30.27;;;27.35;;
40781;SDS011;26493;51.938;7.626;2022-09-09T16:35:57;22.65;;;19.85;;
40781;SDS011;26493;51.938;7.626;2022-09-09T16:38:24;19.67;;;17.70;;
40781;SDS011;26493;51.938;7.626;2022-09-09T16:40:50;23.65;;;17.80;;
40781;SDS011;26493;51.938;7.626;2022-09-09T16:43:16;22.60;;;17.25;;
40781;SDS011;26493;51.938;7.626;2022-09-09T16:45:43;21.65;;;15.50;;
40781;SDS011;26493;51.938;7.626;2022-09-09T16:48:09;23.10;;;19.17;;
40781;SDS011;26493;51.938;7.626;2022-09-09T16:50:35;26.05;;;23.48;;